Besiktas Bosphorus — TCOG3 — position and weather

sailwx.info

Track history (hours):
 
Tides and Currents Weather Stations Pressure Air Temp Water Temp Dewpoint Dewpoint Depression Visibility Wind Speed Wind Dir Waves Ship Positions

Besiktas Bosphorus

Last reported at 2016-Jun-28 07:13 UTC. Time now 2016-Jun-28 08:00 UTC.
Position N 44°21' E 037°29'.

Length 274 m; draft 8.8 m.

Type: Tanker. MMSI: 271000817.

Date/timePositionNaut miles runAvg speedWind from/ knotsBaromVisibWave heightAir tempDewpointWater temp
2016-Jun-28 07:13N 44°21' E 037°29'1 0.9
2016-Jun-28 06:33N 44°21' E 037°29'17 8.3
2016-Jun-28 04:27N 44°33' E 037°12'1712.5
2016-Jun-28 03:07N 44°41' E 036°52'712.8
2016-Jun-28 02:34N 44°44' E 036°42'1311.6
2016-Jun-28 01:29N 44°51' E 036°28'1213.2
2016-Jun-28 00:33N 45°04' E 036°29'6 6.1
2016-Jun-27 23:33N 45°09' E 036°33'0 0.0
2016-Jun-27 22:24N 45°09' E 036°33'0 0.0
2016-Jun-27 21:33N 45°09' E 036°33'0 0.0
2016-Jun-27 20:33N 45°09' E 036°33'0 0.0
2016-Jun-27 19:30N 45°09' E 036°33'0 0.0
2016-Jun-27 18:33N 45°09' E 036°33'0 0.0
2016-Jun-27 17:33N 45°09' E 036°33'0 0.0
2016-Jun-27 16:33N 45°09' E 036°33'0 0.0
2016-Jun-27 15:33N 45°09' E 036°33'0 0.0
2016-Jun-27 14:33N 45°09' E 036°33'0 0.0
2016-Jun-27 13:33N 45°09' E 036°33'0 0.2
2016-Jun-27 12:33N 45°10' E 036°33'0 0.0
2016-Jun-27 11:33N 45°10' E 036°33'0 0.0
2016-Jun-27 10:33N 45°10' E 036°33'0 0.0
2016-Jun-27 09:33N 45°10' E 036°33'0 0.0
2016-Jun-27 08:33N 45°09' E 036°33'0 0.0
2016-Jun-27 07:30N 45°10' E 036°33'0 0.0
2016-Jun-27 06:33N 45°10' E 036°33'0 0.0
2016-Jun-27 05:33N 45°09' E 036°33'0 0.0
2016-Jun-27 04:30N 45°09' E 036°33'0 0.0
2016-Jun-27 03:33N 45°09' E 036°33'0 0.0
2016-Jun-27 02:33N 45°09' E 036°33'0 0.0
2016-Jun-27 01:33N 45°09' E 036°33'0 0.0
2016-Jun-27 00:33N 45°09' E 036°33'0 0.0
2016-Jun-26 23:33N 45°09' E 036°33'0 0.0
2016-Jun-26 22:33N 45°09' E 036°33'0 0.0
2016-Jun-26 21:21N 45°09' E 036°33'0 0.0
2016-Jun-26 20:27N 45°09' E 036°33'0 0.0
2016-Jun-26 19:33N 45°09' E 036°33'0 0.0
2016-Jun-26 18:33N 45°09' E 036°33'0 0.1
2016-Jun-26 17:33N 45°09' E 036°33'0 0.0
2016-Jun-26 16:33N 45°09' E 036°33'0 0.0
2016-Jun-26 15:33N 45°09' E 036°33'0 0.0
2016-Jun-26 14:33N 45°09' E 036°33'0 0.1
2016-Jun-26 13:33N 45°09' E 036°33'2 2.2
2016-Jun-26 12:33N 45°08' E 036°31'1212.1
2016-Jun-26 11:34N 44°56' E 036°31'3014.2
2016-Jun-26 09:25N 44°26' E 036°20'2714.4
2016-Jun-26 07:33N 44°01' E 036°06'36312.4
2016-Jun-25 02:19N 40°59' E 028°60'6 7.1
2016-Jun-25 01:27N 40°53' E 028°56'8 2.6
2016-Jun-24 22:32N 40°46' E 028°56'1 0.6
2016-Jun-24 21:11N 40°46' E 028°57'0 0.7
2016-Jun-24 20:33N 40°46' E 028°57'4 4.3
2016-Jun-24 19:33N 40°42' E 028°55'4 4.1
2016-Jun-24 18:33N 40°39' E 028°52'1 1.4
2016-Jun-24 17:33N 40°40' E 028°52'1 1.5
2016-Jun-24 16:33N 40°42' E 028°52'2 1.5
2016-Jun-24 15:33N 40°43' E 028°53'2 1.6
2016-Jun-24 14:32N 40°45' E 028°54'2 1.6
2016-Jun-24 13:31N 40°46' E 028°55'4 4.2
2016-Jun-24 12:32N 40°50' E 028°52'1 1.3
2016-Jun-24 11:32N 40°49' E 028°53'1 1.1
2016-Jun-24 10:32N 40°49' E 028°55'2 1.7
2016-Jun-24 09:31N 40°47' E 028°54'1 1.2
2016-Jun-24 08:33N 40°48' E 028°55'1 1.2
2016-Jun-24 07:33N 40°49' E 028°55'4 1.3
2016-Jun-24 04:33N 40°46' E 028°57'0 0.3
2016-Jun-24 03:33N 40°45' E 028°56'1 1.3
2016-Jun-24 02:33N 40°47' E 028°57'1 1.0
2016-Jun-24 01:33N 40°48' E 028°57'262 8.7
2016-Jun-22 19:23N 37°58' E 024°39'1012.2
2016-Jun-22 18:34N 37°48' E 024°35'4313.4
2016-Jun-22 15:19N 37°14' E 024°02'5013.4
2016-Jun-22 11:33N 36°33' E 023°24'14612.1
2016-Jun-21 23:27N 37°10' E 020°26'3314.2
2016-Jun-21 21:06N 37°39' E 020°06'1014.9
2016-Jun-21 20:27N 37°48' E 020°02'4814.7
2016-Jun-21 17:10N 38°33' E 019°40'1014.7
2016-Jun-21 16:30N 38°42' E 019°36'1414.5
2016-Jun-21 15:31N 38°55' E 019°29'2814.3
2016-Jun-21 13:33N 39°22' E 019°16'1514.4
2016-Jun-21 12:30N 39°36' E 019°09'1714.3
2016-Jun-21 11:20N 39°51' E 019°01'40813.1
2016-Jun-20 04:12N 45°04' E 013°07'812.7
2016-Jun-20 03:33N 45°12' E 013°02'1313.1
2016-Jun-20 02:33N 45°25' E 012°58'1612.4
2016-Jun-20 01:16N 45°34' E 013°18'  
Track history (hours):
 
Tides and Currents Weather Stations Pressure Air Temp Water Temp Dewpoint Dewpoint Depression Visibility Wind Speed Wind Dir Waves Ship Positions

Besiktas Bosphorus

Last reported at 2016-Jun-28 07:13 UTC. Time now 2016-Jun-28 08:00 UTC.
Position N 44°21' E 037°29'.

Length 274 m; draft 8.8 m.

Type: Tanker. MMSI: 271000817.

Date/timePositionNaut miles runAvg speedWind from/ knotsBaromVisibWave heightAir tempDewpointWater temp
2016-Jun-28 07:13N 44°21' E 037°29'1 0.9
2016-Jun-28 06:33N 44°21' E 037°29'17 8.3
2016-Jun-28 04:27N 44°33' E 037°12'1712.5
2016-Jun-28 03:07N 44°41' E 036°52'712.8
2016-Jun-28 02:34N 44°44' E 036°42'1311.6
2016-Jun-28 01:29N 44°51' E 036°28'1213.2
2016-Jun-28 00:33N 45°04' E 036°29'6 6.1
2016-Jun-27 23:33N 45°09' E 036°33'0 0.0
2016-Jun-27 22:24N 45°09' E 036°33'0 0.0
2016-Jun-27 21:33N 45°09' E 036°33'0 0.0
2016-Jun-27 20:33N 45°09' E 036°33'0 0.0
2016-Jun-27 19:30N 45°09' E 036°33'0 0.0
2016-Jun-27 18:33N 45°09' E 036°33'0 0.0
2016-Jun-27 17:33N 45°09' E 036°33'0 0.0
2016-Jun-27 16:33N 45°09' E 036°33'0 0.0
2016-Jun-27 15:33N 45°09' E 036°33'0 0.0
2016-Jun-27 14:33N 45°09' E 036°33'0 0.0
2016-Jun-27 13:33N 45°09' E 036°33'0 0.2
2016-Jun-27 12:33N 45°10' E 036°33'0 0.0
2016-Jun-27 11:33N 45°10' E 036°33'0 0.0
2016-Jun-27 10:33N 45°10' E 036°33'0 0.0
2016-Jun-27 09:33N 45°10' E 036°33'0 0.0
2016-Jun-27 08:33N 45°09' E 036°33'0 0.0
2016-Jun-27 07:30N 45°10' E 036°33'0 0.0
2016-Jun-27 06:33N 45°10' E 036°33'0 0.0
2016-Jun-27 05:33N 45°09' E 036°33'0 0.0
2016-Jun-27 04:30N 45°09' E 036°33'0 0.0
2016-Jun-27 03:33N 45°09' E 036°33'0 0.0
2016-Jun-27 02:33N 45°09' E 036°33'0 0.0
2016-Jun-27 01:33N 45°09' E 036°33'0 0.0
2016-Jun-27 00:33N 45°09' E 036°33'0 0.0
2016-Jun-26 23:33N 45°09' E 036°33'0 0.0
2016-Jun-26 22:33N 45°09' E 036°33'0 0.0
2016-Jun-26 21:21N 45°09' E 036°33'0 0.0
2016-Jun-26 20:27N 45°09' E 036°33'0 0.0
2016-Jun-26 19:33N 45°09' E 036°33'0 0.0
2016-Jun-26 18:33N 45°09' E 036°33'0 0.1
2016-Jun-26 17:33N 45°09' E 036°33'0 0.0
2016-Jun-26 16:33N 45°09' E 036°33'0 0.0
2016-Jun-26 15:33N 45°09' E 036°33'0 0.0
2016-Jun-26 14:33N 45°09' E 036°33'0 0.1
2016-Jun-26 13:33N 45°09' E 036°33'2 2.2
2016-Jun-26 12:33N 45°08' E 036°31'1212.1
2016-Jun-26 11:34N 44°56' E 036°31'3014.2
2016-Jun-26 09:25N 44°26' E 036°20'2714.4
2016-Jun-26 07:33N 44°01' E 036°06'36312.4
2016-Jun-25 02:19N 40°59' E 028°60'6 7.1
2016-Jun-25 01:27N 40°53' E 028°56'8 2.6
2016-Jun-24 22:32N 40°46' E 028°56'1 0.6
2016-Jun-24 21:11N 40°46' E 028°57'0 0.7
2016-Jun-24 20:33N 40°46' E 028°57'4 4.3
2016-Jun-24 19:33N 40°42' E 028°55'4 4.1
2016-Jun-24 18:33N 40°39' E 028°52'1 1.4
2016-Jun-24 17:33N 40°40' E 028°52'1 1.5
2016-Jun-24 16:33N 40°42' E 028°52'2 1.5
2016-Jun-24 15:33N 40°43' E 028°53'2 1.6
2016-Jun-24 14:32N 40°45' E 028°54'2 1.6
2016-Jun-24 13:31N 40°46' E 028°55'4 4.2
2016-Jun-24 12:32N 40°50' E 028°52'1 1.3
2016-Jun-24 11:32N 40°49' E 028°53'1 1.1
2016-Jun-24 10:32N 40°49' E 028°55'2 1.7
2016-Jun-24 09:31N 40°47' E 028°54'1 1.2
2016-Jun-24 08:33N 40°48' E 028°55'1 1.2
2016-Jun-24 07:33N 40°49' E 028°55'4 1.3
2016-Jun-24 04:33N 40°46' E 028°57'0 0.3
2016-Jun-24 03:33N 40°45' E 028°56'1 1.3
2016-Jun-24 02:33N 40°47' E 028°57'1 1.0
2016-Jun-24 01:33N 40°48' E 028°57'262 8.7
2016-Jun-22 19:23N 37°58' E 024°39'1012.2
2016-Jun-22 18:34N 37°48' E 024°35'4313.4
2016-Jun-22 15:19N 37°14' E 024°02'5013.4
2016-Jun-22 11:33N 36°33' E 023°24'14612.1
2016-Jun-21 23:27N 37°10' E 020°26'3314.2
2016-Jun-21 21:06N 37°39' E 020°06'1014.9
2016-Jun-21 20:27N 37°48' E 020°02'4814.7
2016-Jun-21 17:10N 38°33' E 019°40'1014.7
2016-Jun-21 16:30N 38°42' E 019°36'1414.5
2016-Jun-21 15:31N 38°55' E 019°29'2814.3
2016-Jun-21 13:33N 39°22' E 019°16'1514.4
2016-Jun-21 12:30N 39°36' E 019°09'1714.3
2016-Jun-21 11:20N 39°51' E 019°01'40813.1
2016-Jun-20 04:12N 45°04' E 013°07'812.7
2016-Jun-20 03:33N 45°12' E 013°02'1313.1
2016-Jun-20 02:33N 45°25' E 012°58'1612.4
2016-Jun-20 01:16N 45°34' E 013°18'  

Dump ship's entire track history